sensor_id;sensor_type;location;lat;lon;timestamp;P1;durP1;ratioP1;P2;durP2;ratioP2
4575;SDS011;2300;51.874;8.430;2023-04-25T00:02:22;20.60;;;7.37;;
4575;SDS011;2300;51.874;8.430;2023-04-25T00:04:49;19.17;;;6.27;;
4575;SDS011;2300;51.874;8.430;2023-04-25T00:07:17;22.50;;;6.87;;
4575;SDS011;2300;51.874;8.430;2023-04-25T00:09:44;15.90;;;6.63;;
4575;SDS011;2300;51.874;8.430;2023-04-25T00:12:11;25.13;;;7.60;;
4575;SDS011;2300;51.874;8.430;2023-04-25T00:14:37;20.23;;;6.47;;
4575;SDS011;2300;51.874;8.430;2023-04-25T00:17:05;22.67;;;6.43;;
4575;SDS011;2300;51.874;8.430;2023-04-25T00:19:31;18.53;;;6.43;;
4575;SDS011;2300;51.874;8.430;2023-04-25T00:21:59;18.20;;;6.50;;
4575;SDS011;2300;51.874;8.430;2023-04-25T00:24:26;22.07;;;7.00;;
4575;SDS011;2300;51.874;8.430;2023-04-25T00:26:54;16.90;;;7.30;;
4575;SDS011;2300;51.874;8.430;2023-04-25T00:29:20;19.10;;;7.37;;
4575;SDS011;2300;51.874;8.430;2023-04-25T00:31:46;19.27;;;6.37;;
4575;SDS011;2300;51.874;8.430;2023-04-25T00:34:13;19.70;;;6.50;;
4575;SDS011;2300;51.874;8.430;2023-04-25T00:36:39;20.07;;;6.50;;
4575;SDS011;2300;51.874;8.430;2023-04-25T00:39:06;18.23;;;6.77;;
4575;SDS011;2300;51.874;8.430;2023-04-25T00:41:32;21.20;;;7.33;;
4575;SDS011;2300;51.874;8.430;2023-04-25T00:44:00;17.00;;;6.93;;
4575;SDS011;2300;51.874;8.430;2023-04-25T00:46:28;21.27;;;6.93;;
4575;SDS011;2300;51.874;8.430;2023-04-25T00:48:55;20.17;;;7.07;;
4575;SDS011;2300;51.874;8.430;2023-04-25T00:51:21;13.73;;;6.00;;
4575;SDS011;2300;51.874;8.430;2023-04-25T00:53:48;20.60;;;7.53;;
4575;SDS011;2300;51.874;8.430;2023-04-25T00:56:15;19.90;;;8.10;;
4575;SDS011;2300;51.874;8.430;2023-04-25T00:58:42;21.57;;;7.50;;
4575;SDS011;2300;51.874;8.430;2023-04-25T01:01:10;23.07;;;8.73;;
4575;SDS011;2300;51.874;8.430;2023-04-25T01:03:37;19.27;;;7.40;;
4575;SDS011;2300;51.874;8.430;2023-04-25T01:06:06;21.70;;;7.73;;
4575;SDS011;2300;51.874;8.430;2023-04-25T01:08:34;22.93;;;7.50;;
4575;SDS011;2300;51.874;8.430;2023-04-25T01:11:01;18.83;;;8.20;;
4575;SDS011;2300;51.874;8.430;2023-04-25T01:13:27;24.73;;;8.20;;
4575;SDS011;2300;51.874;8.430;2023-04-25T01:15:54;19.90;;;8.13;;
4575;SDS011;2300;51.874;8.430;2023-04-25T01:18:22;20.63;;;7.43;;
4575;SDS011;2300;51.874;8.430;2023-04-25T01:20:49;18.87;;;7.70;;
4575;SDS011;2300;51.874;8.430;2023-04-25T01:23:18;20.27;;;8.73;;
4575;SDS011;2300;51.874;8.430;2023-04-25T01:25:45;21.27;;;9.10;;
4575;SDS011;2300;51.874;8.430;2023-04-25T01:28:13;22.43;;;9.20;;
4575;SDS011;2300;51.874;8.430;2023-04-25T01:30:40;21.57;;;9.23;;
4575;SDS011;2300;51.874;8.430;2023-04-25T01:33:07;15.90;;;8.67;;
4575;SDS011;2300;51.874;8.430;2023-04-25T01:35:34;26.47;;;11.00;;
4575;SDS011;2300;51.874;8.430;2023-04-25T01:38:00;22.33;;;9.57;;
4575;SDS011;2300;51.874;8.430;2023-04-25T01:40:28;27.93;;;10.60;;
4575;SDS011;2300;51.874;8.430;2023-04-25T01:42:56;20.63;;;10.20;;
4575;SDS011;2300;51.874;8.430;2023-04-25T01:45:22;21.43;;;9.50;;
4575;SDS011;2300;51.874;8.430;2023-04-25T01:47:49;24.33;;;9.53;;
4575;SDS011;2300;51.874;8.430;2023-04-25T01:50:16;18.70;;;9.57;;
4575;SDS011;2300;51.874;8.430;2023-04-25T01:52:43;23.50;;;10.63;;
4575;SDS011;2300;51.874;8.430;2023-04-25T01:55:10;21.90;;;10.67;;
4575;SDS011;2300;51.874;8.430;2023-04-25T01:57:37;24.67;;;11.13;;
4575;SDS011;2300;51.874;8.430;2023-04-25T02:00:06;20.80;;;10.13;;
4575;SDS011;2300;51.874;8.430;2023-04-25T02:02:33;24.10;;;11.53;;
4575;SDS011;2300;51.874;8.430;2023-04-25T02:05:00;25.80;;;11.47;;
4575;SDS011;2300;51.874;8.430;2023-04-25T02:07:27;24.33;;;10.97;;
4575;SDS011;2300;51.874;8.430;2023-04-25T02:09:53;22.77;;;10.27;;
4575;SDS011;2300;51.874;8.430;2023-04-25T02:12:19;25.17;;;11.53;;
4575;SDS011;2300;51.874;8.430;2023-04-25T02:14:47;20.57;;;10.47;;
4575;SDS011;2300;51.874;8.430;2023-04-25T02:17:14;18.97;;;10.73;;
4575;SDS011;2300;51.874;8.430;2023-04-25T02:19:40;26.53;;;11.90;;
4575;SDS011;2300;51.874;8.430;2023-04-25T02:22:07;21.67;;;11.77;;
4575;SDS011;2300;51.874;8.430;2023-04-25T02:24:33;29.07;;;11.63;;
4575;SDS011;2300;51.874;8.430;2023-04-25T02:27:00;29.27;;;12.27;;
4575;SDS011;2300;51.874;8.430;2023-04-25T02:29:26;27.13;;;11.67;;
4575;SDS011;2300;51.874;8.430;2023-04-25T02:31:54;30.20;;;13.57;;
4575;SDS011;2300;51.874;8.430;2023-04-25T02:34:21;24.70;;;12.77;;
4575;SDS011;2300;51.874;8.430;2023-04-25T02:36:47;28.57;;;12.13;;
4575;SDS011;2300;51.874;8.430;2023-04-25T02:39:14;23.33;;;11.07;;
4575;SDS011;2300;51.874;8.430;2023-04-25T02:41:40;30.07;;;13.40;;
4575;SDS011;2300;51.874;8.430;2023-04-25T02:44:07;28.53;;;13.93;;
4575;SDS011;2300;51.874;8.430;2023-04-25T02:46:33;32.57;;;15.13;;
4575;SDS011;2300;51.874;8.430;2023-04-25T02:49:01;34.97;;;15.00;;
4575;SDS011;2300;51.874;8.430;2023-04-25T02:51:27;27.93;;;14.10;;
4575;SDS011;2300;51.874;8.430;2023-04-25T02:53:55;34.13;;;15.03;;
4575;SDS011;2300;51.874;8.430;2023-04-25T02:59:43;29.90;;;13.37;;
4575;SDS011;2300;51.874;8.430;2023-04-25T03:02:10;29.87;;;12.53;;
4575;SDS011;2300;51.874;8.430;2023-04-25T03:04:38;25.87;;;13.07;;
4575;SDS011;2300;51.874;8.430;2023-04-25T03:07:04;27.40;;;12.73;;
4575;SDS011;2300;51.874;8.430;2023-04-25T03:09:31;30.10;;;12.73;;
4575;SDS011;2300;51.874;8.430;2023-04-25T03:11:57;28.57;;;12.53;;
4575;SDS011;2300;51.874;8.430;2023-04-25T03:14:24;26.37;;;12.23;;
4575;SDS011;2300;51.874;8.430;2023-04-25T03:16:50;29.00;;;12.67;;
4575;SDS011;2300;51.874;8.430;2023-04-25T03:19:17;24.37;;;11.43;;
4575;SDS011;2300;51.874;8.430;2023-04-25T03:21:45;31.33;;;13.27;;
4575;SDS011;2300;51.874;8.430;2023-04-25T03:24:11;30.33;;;13.37;;
4575;SDS011;2300;51.874;8.430;2023-04-25T03:26:38;26.93;;;12.30;;
4575;SDS011;2300;51.874;8.430;2023-04-25T03:29:04;26.80;;;11.80;;
4575;SDS011;2300;51.874;8.430;2023-04-25T03:31:31;28.13;;;11.80;;
4575;SDS011;2300;51.874;8.430;2023-04-25T03:33:57;29.97;;;11.33;;
4575;SDS011;2300;51.874;8.430;2023-04-25T03:36:24;26.97;;;11.80;;
4575;SDS011;2300;51.874;8.430;2023-04-25T03:38:52;26.87;;;11.10;;
4575;SDS011;2300;51.874;8.430;2023-04-25T03:41:18;26.80;;;12.07;;
4575;SDS011;2300;51.874;8.430;2023-04-25T03:43:45;32.03;;;12.10;;
4575;SDS011;2300;51.874;8.430;2023-04-25T03:46:11;26.30;;;11.20;;
4575;SDS011;2300;51.874;8.430;2023-04-25T03:48:38;22.23;;;11.10;;
4575;SDS011;2300;51.874;8.430;2023-04-25T03:51:04;25.97;;;10.33;;
4575;SDS011;2300;51.874;8.430;2023-04-25T03:53:31;26.87;;;10.27;;
4575;SDS011;2300;51.874;8.430;2023-04-25T03:55:58;26.43;;;9.27;;
4575;SDS011;2300;51.874;8.430;2023-04-25T03:58:25;24.50;;;8.87;;
4575;SDS011;2300;51.874;8.430;2023-04-25T04:00:51;24.03;;;9.03;;
4575;SDS011;2300;51.874;8.430;2023-04-25T04:03:18;27.23;;;9.97;;
4575;SDS011;2300;51.874;8.430;2023-04-25T04:05:45;23.47;;;9.53;;
4575;SDS011;2300;51.874;8.430;2023-04-25T04:08:12;22.33;;;8.50;;
4575;SDS011;2300;51.874;8.430;2023-04-25T04:10:39;28.23;;;9.53;;
4575;SDS011;2300;51.874;8.430;2023-04-25T04:13:06;28.40;;;10.07;;
4575;SDS011;2300;51.874;8.430;2023-04-25T04:15:33;26.97;;;8.73;;
4575;SDS011;2300;51.874;8.430;2023-04-25T04:17:59;25.23;;;9.70;;
4575;SDS011;2300;51.874;8.430;2023-04-25T04:20:27;32.17;;;9.80;;
4575;SDS011;2300;51.874;8.430;2023-04-25T04:22:54;26.47;;;9.93;;
4575;SDS011;2300;51.874;8.430;2023-04-25T04:25:21;28.57;;;9.13;;
4575;SDS011;2300;51.874;8.430;2023-04-25T04:27:47;27.50;;;9.03;;
4575;SDS011;2300;51.874;8.430;2023-04-25T04:30:18;26.13;;;8.63;;
4575;SDS011;2300;51.874;8.430;2023-04-25T04:32:45;24.37;;;8.07;;
4575;SDS011;2300;51.874;8.430;2023-04-25T04:35:11;28.70;;;7.90;;
4575;SDS011;2300;51.874;8.430;2023-04-25T04:37:37;29.37;;;8.73;;
4575;SDS011;2300;51.874;8.430;2023-04-25T04:40:05;29.73;;;8.87;;
4575;SDS011;2300;51.874;8.430;2023-04-25T04:42:32;26.73;;;8.30;;
4575;SDS011;2300;51.874;8.430;2023-04-25T04:44:59;27.90;;;7.93;;
4575;SDS011;2300;51.874;8.430;2023-04-25T04:47:27;21.03;;;7.10;;
4575;SDS011;2300;51.874;8.430;2023-04-25T04:49:56;23.87;;;7.53;;
4575;SDS011;2300;51.874;8.430;2023-04-25T04:52:22;22.93;;;7.27;;
4575;SDS011;2300;51.874;8.430;2023-04-25T04:54:49;38.03;;;8.77;;
4575;SDS011;2300;51.874;8.430;2023-04-25T04:57:15;26.27;;;7.10;;
4575;SDS011;2300;51.874;8.430;2023-04-25T04:59:42;24.03;;;7.30;;
4575;SDS011;2300;51.874;8.430;2023-04-25T05:02:09;26.23;;;7.50;;
4575;SDS011;2300;51.874;8.430;2023-04-25T05:04:37;28.63;;;7.33;;
4575;SDS011;2300;51.874;8.430;2023-04-25T05:07:04;22.00;;;6.97;;
4575;SDS011;2300;51.874;8.430;2023-04-25T05:09:30;25.00;;;6.83;;
4575;SDS011;2300;51.874;8.430;2023-04-25T05:11:57;28.70;;;7.60;;
4575;SDS011;2300;51.874;8.430;2023-04-25T05:14:23;27.80;;;7.33;;
4575;SDS011;2300;51.874;8.430;2023-04-25T05:16:49;30.70;;;6.73;;
4575;SDS011;2300;51.874;8.430;2023-04-25T05:19:16;35.23;;;7.47;;
4575;SDS011;2300;51.874;8.430;2023-04-25T05:21:44;28.00;;;7.37;;
4575;SDS011;2300;51.874;8.430;2023-04-25T05:24:10;23.13;;;5.90;;
4575;SDS011;2300;51.874;8.430;2023-04-25T05:26:37;25.27;;;6.40;;
4575;SDS011;2300;51.874;8.430;2023-04-25T05:29:04;29.53;;;7.30;;
4575;SDS011;2300;51.874;8.430;2023-04-25T05:31:31;31.20;;;6.43;;
4575;SDS011;2300;51.874;8.430;2023-04-25T05:33:57;26.03;;;6.60;;
4575;SDS011;2300;51.874;8.430;2023-04-25T05:36:24;19.77;;;6.07;;
4575;SDS011;2300;51.874;8.430;2023-04-25T05:38:52;20.30;;;6.13;;
4575;SDS011;2300;51.874;8.430;2023-04-25T05:41:18;27.17;;;8.00;;
4575;SDS011;2300;51.874;8.430;2023-04-25T05:43:45;25.03;;;6.90;;
4575;SDS011;2300;51.874;8.430;2023-04-25T05:46:13;31.00;;;7.83;;
4575;SDS011;2300;51.874;8.430;2023-04-25T05:48:40;31.33;;;7.60;;
4575;SDS011;2300;51.874;8.430;2023-04-25T05:51:07;17.73;;;6.93;;
4575;SDS011;2300;51.874;8.430;2023-04-25T05:53:33;27.60;;;7.83;;
4575;SDS011;2300;51.874;8.430;2023-04-25T05:56:01;27.70;;;7.33;;
4575;SDS011;2300;51.874;8.430;2023-04-25T05:58:28;28.20;;;6.13;;
4575;SDS011;2300;51.874;8.430;2023-04-25T06:00:56;22.83;;;6.00;;
4575;SDS011;2300;51.874;8.430;2023-04-25T06:03:23;27.47;;;7.27;;
4575;SDS011;2300;51.874;8.430;2023-04-25T06:05:49;25.93;;;7.27;;
4575;SDS011;2300;51.874;8.430;2023-04-25T06:08:16;23.90;;;6.27;;
4575;SDS011;2300;51.874;8.430;2023-04-25T06:10:42;23.03;;;7.13;;
4575;SDS011;2300;51.874;8.430;2023-04-25T06:13:10;23.10;;;5.63;;
4575;SDS011;2300;51.874;8.430;2023-04-25T06:15:37;28.17;;;5.90;;
4575;SDS011;2300;51.874;8.430;2023-04-25T06:18:03;28.80;;;5.83;;
4575;SDS011;2300;51.874;8.430;2023-04-25T06:20:30;26.47;;;6.57;;
4575;SDS011;2300;51.874;8.430;2023-04-25T06:22:57;19.43;;;6.43;;
4575;SDS011;2300;51.874;8.430;2023-04-25T06:25:24;24.07;;;5.40;;
4575;SDS011;2300;51.874;8.430;2023-04-25T06:27:50;20.93;;;5.20;;
4575;SDS011;2300;51.874;8.430;2023-04-25T06:30:18;23.47;;;5.37;;
4575;SDS011;2300;51.874;8.430;2023-04-25T06:32:48;21.43;;;5.60;;
4575;SDS011;2300;51.874;8.430;2023-04-25T06:35:14;17.80;;;5.30;;
4575;SDS011;2300;51.874;8.430;2023-04-25T06:37:41;17.90;;;6.03;;
4575;SDS011;2300;51.874;8.430;2023-04-25T06:40:08;22.43;;;5.83;;
4575;SDS011;2300;51.874;8.430;2023-04-25T06:42:35;18.93;;;4.60;;
4575;SDS011;2300;51.874;8.430;2023-04-25T06:45:02;25.10;;;5.40;;
4575;SDS011;2300;51.874;8.430;2023-04-25T06:47:30;21.00;;;5.13;;
4575;SDS011;2300;51.874;8.430;2023-04-25T06:49:56;20.10;;;4.87;;
4575;SDS011;2300;51.874;8.430;2023-04-25T06:52:23;23.57;;;4.90;;
4575;SDS011;2300;51.874;8.430;2023-04-25T06:54:49;22.20;;;4.13;;
4575;SDS011;2300;51.874;8.430;2023-04-25T06:57:16;17.50;;;4.73;;
4575;SDS011;2300;51.874;8.430;2023-04-25T06:59:42;20.83;;;4.67;;
4575;SDS011;2300;51.874;8.430;2023-04-25T07:02:09;25.33;;;5.33;;
4575;SDS011;2300;51.874;8.430;2023-04-25T07:04:36;15.90;;;4.00;;
4575;SDS011;2300;51.874;8.430;2023-04-25T07:07:03;19.97;;;4.23;;
4575;SDS011;2300;51.874;8.430;2023-04-25T07:09:29;21.63;;;4.70;;
4575;SDS011;2300;51.874;8.430;2023-04-25T07:11:58;24.17;;;6.17;;
4575;SDS011;2300;51.874;8.430;2023-04-25T07:14:26;21.53;;;5.20;;
4575;SDS011;2300;51.874;8.430;2023-04-25T07:16:52;21.47;;;4.20;;
4575;SDS011;2300;51.874;8.430;2023-04-25T07:19:21;25.63;;;4.80;;
4575;SDS011;2300;51.874;8.430;2023-04-25T07:21:52;20.53;;;3.93;;
4575;SDS011;2300;51.874;8.430;2023-04-25T07:24:19;18.70;;;3.87;;
4575;SDS011;2300;51.874;8.430;2023-04-25T07:26:46;22.20;;;5.50;;
4575;SDS011;2300;51.874;8.430;2023-04-25T07:29:13;22.90;;;6.07;;
4575;SDS011;2300;51.874;8.430;2023-04-25T07:31:39;13.50;;;3.47;;
4575;SDS011;2300;51.874;8.430;2023-04-25T07:34:06;21.10;;;4.50;;
4575;SDS011;2300;51.874;8.430;2023-04-25T07:36:33;19.10;;;4.40;;
4575;SDS011;2300;51.874;8.430;2023-04-25T07:39:00;20.77;;;4.30;;
4575;SDS011;2300;51.874;8.430;2023-04-25T07:41:27;19.57;;;4.10;;
4575;SDS011;2300;51.874;8.430;2023-04-25T07:43:53;16.37;;;4.20;;
4575;SDS011;2300;51.874;8.430;2023-04-25T07:46:20;16.60;;;4.40;;
4575;SDS011;2300;51.874;8.430;2023-04-25T07:48:46;18.70;;;5.30;;
4575;SDS011;2300;51.874;8.430;2023-04-25T07:51:13;29.97;;;4.53;;
4575;SDS011;2300;51.874;8.430;2023-04-25T07:53:39;15.90;;;3.90;;
4575;SDS011;2300;51.874;8.430;2023-04-25T07:56:07;18.80;;;5.00;;
4575;SDS011;2300;51.874;8.430;2023-04-25T07:58:34;23.57;;;4.23;;
4575;SDS011;2300;51.874;8.430;2023-04-25T08:01:00;18.63;;;4.53;;
4575;SDS011;2300;51.874;8.430;2023-04-25T08:03:27;19.53;;;3.70;;
4575;SDS011;2300;51.874;8.430;2023-04-25T08:05:53;12.93;;;3.17;;
4575;SDS011;2300;51.874;8.430;2023-04-25T08:08:20;16.23;;;3.07;;
4575;SDS011;2300;51.874;8.430;2023-04-25T08:10:47;14.00;;;3.57;;
4575;SDS011;2300;51.874;8.430;2023-04-25T08:13:15;22.93;;;3.40;;
4575;SDS011;2300;51.874;8.430;2023-04-25T08:15:42;12.00;;;2.70;;
4575;SDS011;2300;51.874;8.430;2023-04-25T08:18:08;10.30;;;3.17;;
4575;SDS011;2300;51.874;8.430;2023-04-25T08:20:35;16.10;;;3.43;;
4575;SDS011;2300;51.874;8.430;2023-04-25T08:23:01;10.57;;;2.97;;
4575;SDS011;2300;51.874;8.430;2023-04-25T08:25:28;18.43;;;6.40;;
4575;SDS011;2300;51.874;8.430;2023-04-25T08:27:54;12.90;;;2.80;;
4575;SDS011;2300;51.874;8.430;2023-04-25T08:30:22;11.43;;;2.70;;
4575;SDS011;2300;51.874;8.430;2023-04-25T08:32:49;17.90;;;3.20;;
4575;SDS011;2300;51.874;8.430;2023-04-25T08:35:15;15.53;;;2.53;;
4575;SDS011;2300;51.874;8.430;2023-04-25T08:37:42;19.30;;;3.03;;
4575;SDS011;2300;51.874;8.430;2023-04-25T08:40:09;12.77;;;2.43;;
4575;SDS011;2300;51.874;8.430;2023-04-25T08:42:39;13.93;;;2.93;;
4575;SDS011;2300;51.874;8.430;2023-04-25T08:45:07;12.93;;;2.73;;
4575;SDS011;2300;51.874;8.430;2023-04-25T08:47:35;8.33;;;2.00;;
4575;SDS011;2300;51.874;8.430;2023-04-25T08:50:04;11.10;;;2.70;;
4575;SDS011;2300;51.874;8.430;2023-04-25T08:52:39;8.27;;;1.90;;
4575;SDS011;2300;51.874;8.430;2023-04-25T08:55:10;11.87;;;2.53;;
4575;SDS011;2300;51.874;8.430;2023-04-25T08:57:39;6.63;;;1.90;;
4575;SDS011;2300;51.874;8.430;2023-04-25T09:00:08;8.13;;;2.33;;
4575;SDS011;2300;51.874;8.430;2023-04-25T09:02:36;12.97;;;2.17;;
4575;SDS011;2300;51.874;8.430;2023-04-25T09:05:03;13.50;;;2.13;;
4575;SDS011;2300;51.874;8.430;2023-04-25T09:07:31;11.30;;;2.30;;
4575;SDS011;2300;51.874;8.430;2023-04-25T09:09:58;13.33;;;2.30;;
4575;SDS011;2300;51.874;8.430;2023-04-25T09:12:27;16.63;;;2.27;;
4575;SDS011;2300;51.874;8.430;2023-04-25T09:15:03;9.30;;;2.30;;
4575;SDS011;2300;51.874;8.430;2023-04-25T09:17:30;10.80;;;1.80;;
4575;SDS011;2300;51.874;8.430;2023-04-25T09:20:06;11.57;;;1.93;;
4575;SDS011;2300;51.874;8.430;2023-04-25T09:22:34;9.13;;;2.03;;
4575;SDS011;2300;51.874;8.430;2023-04-25T09:25:02;10.17;;;1.77;;
4575;SDS011;2300;51.874;8.430;2023-04-25T09:27:29;16.87;;;2.30;;
4575;SDS011;2300;51.874;8.430;2023-04-25T09:29:56;10.43;;;1.80;;
4575;SDS011;2300;51.874;8.430;2023-04-25T09:32:24;10.60;;;2.23;;
4575;SDS011;2300;51.874;8.430;2023-04-25T09:34:51;9.23;;;2.27;;
4575;SDS011;2300;51.874;8.430;2023-04-25T09:37:20;8.57;;;1.93;;
4575;SDS011;2300;51.874;8.430;2023-04-25T09:39:48;9.47;;;2.20;;
4575;SDS011;2300;51.874;8.430;2023-04-25T09:42:16;12.03;;;2.50;;
4575;SDS011;2300;51.874;8.430;2023-04-25T09:44:43;8.00;;;2.00;;
4575;SDS011;2300;51.874;8.430;2023-04-25T09:47:10;7.90;;;1.57;;
4575;SDS011;2300;51.874;8.430;2023-04-25T09:49:39;8.07;;;1.83;;
4575;SDS011;2300;51.874;8.430;2023-04-25T09:52:07;8.87;;;2.03;;
4575;SDS011;2300;51.874;8.430;2023-04-25T09:54:36;9.10;;;1.97;;
4575;SDS011;2300;51.874;8.430;2023-04-25T09:57:04;6.13;;;1.60;;
4575;SDS011;2300;51.874;8.430;2023-04-25T09:59:37;7.57;;;1.70;;
4575;SDS011;2300;51.874;8.430;2023-04-25T10:02:06;5.93;;;1.40;;
4575;SDS011;2300;51.874;8.430;2023-04-25T10:04:34;7.90;;;1.90;;
4575;SDS011;2300;51.874;8.430;2023-04-25T10:07:01;6.97;;;1.90;;
4575;SDS011;2300;51.874;8.430;2023-04-25T10:09:31;7.03;;;1.87;;
4575;SDS011;2300;51.874;8.430;2023-04-25T10:12:00;11.30;;;1.70;;
4575;SDS011;2300;51.874;8.430;2023-04-25T10:14:28;7.27;;;2.10;;
4575;SDS011;2300;51.874;8.430;2023-04-25T10:16:55;8.93;;;1.90;;
4575;SDS011;2300;51.874;8.430;2023-04-25T10:19:23;7.10;;;1.87;;
4575;SDS011;2300;51.874;8.430;2023-04-25T10:21:52;11.17;;;1.73;;
4575;SDS011;2300;51.874;8.430;2023-04-25T10:24:21;9.33;;;2.03;;
4575;SDS011;2300;51.874;8.430;2023-04-25T10:26:49;6.83;;;2.20;;
4575;SDS011;2300;51.874;8.430;2023-04-25T10:29:22;7.07;;;1.40;;
4575;SDS011;2300;51.874;8.430;2023-04-25T10:31:50;7.87;;;1.77;;
4575;SDS011;2300;51.874;8.430;2023-04-25T10:34:17;11.23;;;1.87;;
4575;SDS011;2300;51.874;8.430;2023-04-25T10:36:49;7.53;;;2.20;;
4575;SDS011;2300;51.874;8.430;2023-04-25T10:39:21;6.10;;;2.10;;
4575;SDS011;2300;51.874;8.430;2023-04-25T10:41:52;10.53;;;1.80;;
4575;SDS011;2300;51.874;8.430;2023-04-25T10:44:20;6.77;;;1.73;;
4575;SDS011;2300;51.874;8.430;2023-04-25T10:46:48;13.57;;;3.03;;
4575;SDS011;2300;51.874;8.430;2023-04-25T10:49:28;10.60;;;1.90;;
4575;SDS011;2300;51.874;8.430;2023-04-25T10:54:42;8.50;;;1.67;;
4575;SDS011;2300;51.874;8.430;2023-04-25T11:00:07;11.57;;;1.93;;
4575;SDS011;2300;51.874;8.430;2023-04-25T11:02:38;11.30;;;1.97;;
4575;SDS011;2300;51.874;8.430;2023-04-25T11:05:09;9.47;;;1.90;;
4575;SDS011;2300;51.874;8.430;2023-04-25T11:07:43;10.57;;;2.10;;
4575;SDS011;2300;51.874;8.430;2023-04-25T11:10:14;8.67;;;1.83;;
4575;SDS011;2300;51.874;8.430;2023-04-25T11:12:41;9.70;;;2.30;;
4575;SDS011;2300;51.874;8.430;2023-04-25T11:15:08;5.43;;;1.93;;
4575;SDS011;2300;51.874;8.430;2023-04-25T11:17:34;9.47;;;1.80;;
4575;SDS011;2300;51.874;8.430;2023-04-25T11:20:02;5.57;;;1.73;;
4575;SDS011;2300;51.874;8.430;2023-04-25T11:22:34;14.07;;;2.37;;
4575;SDS011;2300;51.874;8.430;2023-04-25T11:25:04;6.37;;;1.83;;
4575;SDS011;2300;51.874;8.430;2023-04-25T11:27:31;8.90;;;1.63;;
4575;SDS011;2300;51.874;8.430;2023-04-25T11:29:58;7.03;;;1.67;;
4575;SDS011;2300;51.874;8.430;2023-04-25T11:32:24;8.27;;;1.70;;
4575;SDS011;2300;51.874;8.430;2023-04-25T11:34:52;7.83;;;1.50;;
4575;SDS011;2300;51.874;8.430;2023-04-25T11:37:19;9.13;;;1.70;;
4575;SDS011;2300;51.874;8.430;2023-04-25T11:39:46;5.87;;;1.50;;
4575;SDS011;2300;51.874;8.430;2023-04-25T11:42:13;7.47;;;1.83;;
4575;SDS011;2300;51.874;8.430;2023-04-25T11:44:39;5.97;;;1.60;;
4575;SDS011;2300;51.874;8.430;2023-04-25T11:47:06;7.30;;;1.60;;
4575;SDS011;2300;51.874;8.430;2023-04-25T11:49:33;7.33;;;1.43;;
4575;SDS011;2300;51.874;8.430;2023-04-25T11:52:00;8.97;;;1.63;;
4575;SDS011;2300;51.874;8.430;2023-04-25T11:54:28;8.77;;;1.60;;
4575;SDS011;2300;51.874;8.430;2023-04-25T11:56:55;7.07;;;1.50;;
4575;SDS011;2300;51.874;8.430;2023-04-25T11:59:23;6.90;;;1.60;;
4575;SDS011;2300;51.874;8.430;2023-04-25T12:01:51;9.63;;;2.00;;
4575;SDS011;2300;51.874;8.430;2023-04-25T12:04:18;6.07;;;2.17;;
4575;SDS011;2300;51.874;8.430;2023-04-25T12:06:47;8.33;;;1.77;;
4575;SDS011;2300;51.874;8.430;2023-04-25T12:09:15;7.77;;;1.60;;
4575;SDS011;2300;51.874;8.430;2023-04-25T12:11:44;5.63;;;1.50;;
4575;SDS011;2300;51.874;8.430;2023-04-25T12:14:12;6.37;;;1.30;;
4575;SDS011;2300;51.874;8.430;2023-04-25T12:16:48;5.43;;;2.00;;
4575;SDS011;2300;51.874;8.430;2023-04-25T12:19:15;8.77;;;2.10;;
4575;SDS011;2300;51.874;8.430;2023-04-25T12:21:42;7.57;;;1.63;;
4575;SDS011;2300;51.874;8.430;2023-04-25T12:24:10;7.50;;;1.60;;
4575;SDS011;2300;51.874;8.430;2023-04-25T12:26:49;7.40;;;1.50;;
4575;SDS011;2300;51.874;8.430;2023-04-25T12:29:19;7.83;;;1.10;;
4575;SDS011;2300;51.874;8.430;2023-04-25T12:31:48;7.70;;;1.27;;
4575;SDS011;2300;51.874;8.430;2023-04-25T12:34:22;7.23;;;1.43;;
4575;SDS011;2300;51.874;8.430;2023-04-25T12:36:56;5.80;;;1.20;;
4575;SDS011;2300;51.874;8.430;2023-04-25T12:39:23;4.70;;;1.13;;
4575;SDS011;2300;51.874;8.430;2023-04-25T12:41:52;7.00;;;1.27;;
4575;SDS011;2300;51.874;8.430;2023-04-25T12:44:19;4.67;;;1.30;;
4575;SDS011;2300;51.874;8.430;2023-04-25T12:46:46;6.87;;;1.40;;
4575;SDS011;2300;51.874;8.430;2023-04-25T12:49:13;7.10;;;1.60;;
4575;SDS011;2300;51.874;8.430;2023-04-25T12:51:39;5.60;;;1.40;;
4575;SDS011;2300;51.874;8.430;2023-04-25T12:54:07;6.37;;;1.60;;
4575;SDS011;2300;51.874;8.430;2023-04-25T12:56:34;7.57;;;1.97;;
4575;SDS011;2300;51.874;8.430;2023-04-25T12:59:02;6.03;;;1.17;;
4575;SDS011;2300;51.874;8.430;2023-04-25T13:01:29;7.70;;;1.60;;
4575;SDS011;2300;51.874;8.430;2023-04-25T13:03:57;7.77;;;1.30;;
4575;SDS011;2300;51.874;8.430;2023-04-25T13:06:23;6.50;;;1.30;;
4575;SDS011;2300;51.874;8.430;2023-04-25T13:08:51;4.60;;;1.50;;
4575;SDS011;2300;51.874;8.430;2023-04-25T13:11:17;6.57;;;1.30;;
4575;SDS011;2300;51.874;8.430;2023-04-25T13:13:44;3.67;;;1.00;;
4575;SDS011;2300;51.874;8.430;2023-04-25T13:16:12;5.37;;;1.10;;
4575;SDS011;2300;51.874;8.430;2023-04-25T13:18:39;3.83;;;1.30;;
4575;SDS011;2300;51.874;8.430;2023-04-25T13:21:06;3.27;;;1.10;;
4575;SDS011;2300;51.874;8.430;2023-04-25T13:23:35;5.43;;;1.10;;
4575;SDS011;2300;51.874;8.430;2023-04-25T13:26:01;5.73;;;1.00;;
4575;SDS011;2300;51.874;8.430;2023-04-25T13:28:28;4.30;;;1.00;;
4575;SDS011;2300;51.874;8.430;2023-04-25T13:30:54;4.00;;;1.10;;
4575;SDS011;2300;51.874;8.430;2023-04-25T13:33:22;6.03;;;1.00;;
4575;SDS011;2300;51.874;8.430;2023-04-25T13:35:49;3.97;;;1.10;;
4575;SDS011;2300;51.874;8.430;2023-04-25T13:38:19;2.70;;;0.90;;
4575;SDS011;2300;51.874;8.430;2023-04-25T13:40:46;5.60;;;2.43;;
4575;SDS011;2300;51.874;8.430;2023-04-25T13:43:13;7.50;;;2.00;;
4575;SDS011;2300;51.874;8.430;2023-04-25T13:45:39;8.37;;;1.77;;
4575;SDS011;2300;51.874;8.430;2023-04-25T13:48:06;7.13;;;1.03;;
4575;SDS011;2300;51.874;8.430;2023-04-25T13:50:33;6.03;;;1.40;;
4575;SDS011;2300;51.874;8.430;2023-04-25T13:53:00;7.93;;;1.50;;
4575;SDS011;2300;51.874;8.430;2023-04-25T13:55:26;7.03;;;1.60;;
4575;SDS011;2300;51.874;8.430;2023-04-25T13:57:53;5.23;;;1.57;;
4575;SDS011;2300;51.874;8.430;2023-04-25T14:00:19;4.03;;;1.07;;
4575;SDS011;2300;51.874;8.430;2023-04-25T14:02:46;5.37;;;1.20;;
4575;SDS011;2300;51.874;8.430;2023-04-25T14:05:12;4.73;;;1.50;;
4575;SDS011;2300;51.874;8.430;2023-04-25T14:07:40;5.30;;;1.20;;
4575;SDS011;2300;51.874;8.430;2023-04-25T14:10:07;5.47;;;1.73;;
4575;SDS011;2300;51.874;8.430;2023-04-25T14:12:34;7.20;;;1.90;;
4575;SDS011;2300;51.874;8.430;2023-04-25T14:15:01;7.47;;;1.30;;
4575;SDS011;2300;51.874;8.430;2023-04-25T14:17:27;9.23;;;2.37;;
4575;SDS011;2300;51.874;8.430;2023-04-25T14:19:54;3.40;;;1.50;;
4575;SDS011;2300;51.874;8.430;2023-04-25T14:22:20;7.23;;;2.13;;
4575;SDS011;2300;51.874;8.430;2023-04-25T14:24:48;4.50;;;1.47;;
4575;SDS011;2300;51.874;8.430;2023-04-25T14:27:14;8.63;;;1.60;;
4575;SDS011;2300;51.874;8.430;2023-04-25T14:29:41;5.10;;;1.50;;
4575;SDS011;2300;51.874;8.430;2023-04-25T14:32:07;4.50;;;1.20;;
4575;SDS011;2300;51.874;8.430;2023-04-25T14:34:34;4.60;;;1.40;;
4575;SDS011;2300;51.874;8.430;2023-04-25T14:37:00;8.90;;;2.00;;
4575;SDS011;2300;51.874;8.430;2023-04-25T14:39:27;4.80;;;1.47;;
4575;SDS011;2300;51.874;8.430;2023-04-25T14:41:55;6.63;;;1.63;;
4575;SDS011;2300;51.874;8.430;2023-04-25T14:44:21;8.40;;;1.87;;
4575;SDS011;2300;51.874;8.430;2023-04-25T14:46:48;8.37;;;2.23;;
4575;SDS011;2300;51.874;8.430;2023-04-25T14:49:16;4.77;;;1.90;;
4575;SDS011;2300;51.874;8.430;2023-04-25T14:51:43;8.77;;;2.00;;
4575;SDS011;2300;51.874;8.430;2023-04-25T14:54:09;7.80;;;2.10;;
4575;SDS011;2300;51.874;8.430;2023-04-25T14:56:37;5.73;;;1.70;;
4575;SDS011;2300;51.874;8.430;2023-04-25T14:59:04;6.47;;;2.10;;
4575;SDS011;2300;51.874;8.430;2023-04-25T15:01:31;6.90;;;1.83;;
4575;SDS011;2300;51.874;8.430;2023-04-25T15:03:58;7.33;;;1.87;;
4575;SDS011;2300;51.874;8.430;2023-04-25T15:06:25;6.30;;;2.23;;
4575;SDS011;2300;51.874;8.430;2023-04-25T15:08:53;8.63;;;2.30;;
4575;SDS011;2300;51.874;8.430;2023-04-25T15:11:20;8.03;;;2.27;;
4575;SDS011;2300;51.874;8.430;2023-04-25T15:13:47;10.50;;;3.27;;
4575;SDS011;2300;51.874;8.430;2023-04-25T15:16:14;7.37;;;2.17;;